Time;durP1;ratioP1;P1;durP2;ratioP2;P2;SDS_P1;SDS_P2;PMS_P1;PMS_P2;Temp;Humidity;BMP_temperature;BMP_pressure;BME280_temperature;BME280_humidity;BME280_pressure;Samples;Min_cycle;Max_cycle;Signal;HPM_P1;HPM_P2
2021/06/20 00:01:09;;;;;;;36.47;17.98;;;16.10;99.90;;;;;;5069455;28;20747;-89
2021/06/20 00:03:35;;;;;;;30.50;17.13;;;16.10;99.90;;;;;;5087953;28;20094;-87
2021/06/20 00:06:10;;;;;;;38.88;18.08;;;16.10;99.90;;;;;;5078213;28;20572;-89
2021/06/20 00:08:36;;;;;;;38.92;16.70;;;16.10;99.90;;;;;;5102682;28;20040;-88
2021/06/20 00:11:02;;;;;;;36.95;16.13;;;16.10;99.90;;;;;;5090338;28;20101;-88
2021/06/20 00:13:28;;;;;;;32.63;16.40;;;16.10;99.90;;;;;;5091901;28;20047;-88
2021/06/20 00:15:54;;;;;;;39.45;16.30;;;16.10;99.90;;;;;;5091121;28;20040;-91
2021/06/20 00:18:20;;;;;;;36.75;17.40;;;16.20;99.90;;;;;;5078290;28;20047;-89
2021/06/20 00:20:47;;;;;;;39.05;17.75;;;16.20;99.90;;;;;;5091700;28;20052;-88
2021/06/20 00:23:13;;;;;;;38.97;16.42;;;16.20;99.90;;;;;;5086651;28;20046;-89
2021/06/20 00:25:40;;;;;;;29.83;15.43;;;16.20;99.90;;;;;;5095689;28;20503;-89
2021/06/20 00:28:07;;;;;;;31.65;16.80;;;16.20;99.90;;;;;;5087276;28;20044;-89
2021/06/20 00:30:35;;;;;;;35.80;15.70;;;16.20;99.90;;;;;;5084702;28;20053;-89
2021/06/20 00:33:01;;;;;;;36.72;15.55;;;16.20;99.90;;;;;;5088756;28;20067;-89
2021/06/20 00:35:27;;;;;;;42.17;15.80;;;16.20;99.90;;;;;;5078126;28;20064;-89
2021/06/20 00:37:55;;;;;;;36.65;15.48;;;16.20;99.90;;;;;;5092603;28;20043;-93
2021/06/20 00:40:21;;;;;;;37.85;18.67;;;16.10;99.90;;;;;;5091464;28;20105;-90
2021/06/20 00:42:47;;;;;;;46.20;18.55;;;16.20;99.90;;;;;;5091668;28;20044;-89
2021/06/20 00:45:16;;;;;;;46.75;18.50;;;16.10;99.90;;;;;;5091554;28;20040;-90
2021/06/20 00:47:41;;;;;;;40.72;16.85;;;16.20;99.90;;;;;;5090534;28;20047;-90
2021/06/20 00:50:08;;;;;;;59.58;19.85;;;16.10;99.90;;;;;;5073163;28;20056;-87
2021/06/20 00:52:35;;;;;;;61.05;21.85;;;16.10;99.90;;;;;;5091866;28;20051;-86
2021/06/20 00:55:02;;;;;;;53.58;19.77;;;16.00;99.90;;;;;;5090851;28;20077;-87
2021/06/20 00:57:29;;;;;;;56.75;19.35;;;16.00;99.90;;;;;;5090275;28;20162;-86
2021/06/20 00:59:55;;;;;;;147.95;27.48;;;16.00;99.90;;;;;;5090885;28;20487;-85
2021/06/20 01:02:21;;;;;;;189.55;30.83;;;15.90;99.90;;;;;;5090048;28;20055;-86
2021/06/20 01:04:50;;;;;;;83.32;24.90;;;15.90;99.90;;;;;;5090605;28;20043;-86
2021/06/20 01:07:21;;;;;;;136.93;31.00;;;15.80;99.90;;;;;;5089996;28;20050;-85
2021/06/20 01:09:47;;;;;;;132.45;30.27;;;15.80;99.90;;;;;;5090664;28;20761;-84
2021/06/20 01:12:15;;;;;;;79.50;23.65;;;15.80;99.90;;;;;;5105701;28;20044;-84
2021/06/20 01:14:42;;;;;;;68.25;22.35;;;15.90;99.90;;;;;;5090298;28;20044;-84
2021/06/20 01:17:08;;;;;;;69.88;23.58;;;15.90;99.90;;;;;;5088968;28;20040;-84
2021/06/20 01:19:35;;;;;;;71.90;24.95;;;15.90;99.90;;;;;;5091244;28;20032;-85
2021/06/20 01:22:37;;;;;;;74.45;25.05;;;15.90;99.90;;;;;;5090420;28;20475;-85
2021/06/20 01:25:09;;;;;;;112.63;30.15;;;15.80;99.90;;;;;;5027497;28;20440;-84
2021/06/20 01:27:38;;;;;;;94.05;28.20;;;15.70;99.90;;;;;;5080331;28;20048;-84
2021/06/20 01:30:10;;;;;;;86.50;25.48;;;15.70;99.90;;;;;;5077680;28;20047;-84
2021/06/20 01:32:37;;;;;;;136.18;34.45;;;15.80;99.90;;;;;;5090534;28;20506;-84
2021/06/20 01:35:03;;;;;;;166.82;36.53;;;15.80;99.90;;;;;;5089483;28;20399;-83
2021/06/20 01:37:30;;;;;;;56.75;21.75;;;15.80;99.90;;;;;;5090138;28;20056;-84
2021/06/20 01:39:56;;;;;;;73.75;23.50;;;15.90;99.90;;;;;;5089368;28;20195;-85
2021/06/20 01:42:23;;;;;;;43.50;17.05;;;15.80;99.90;;;;;;5085272;28;20072;-85
2021/06/20 01:44:57;;;;;;;57.63;17.33;;;15.90;99.90;;;;;;5086140;28;20069;-86
2021/06/20 01:47:24;;;;;;;46.80;16.35;;;15.90;99.90;;;;;;5089593;28;20392;-85
2021/06/20 01:49:50;;;;;;;62.78;19.55;;;15.90;99.90;;;;;;5072138;28;20537;-85
2021/06/20 01:52:23;;;;;;;69.32;22.55;;;15.90;99.90;;;;;;5089379;28;20051;-86
2021/06/20 01:54:51;;;;;;;63.00;22.00;;;15.90;99.90;;;;;;5088959;28;20072;-85
2021/06/20 01:57:19;;;;;;;66.60;21.98;;;15.90;99.90;;;;;;5102595;28;20236;-86
2021/06/20 01:59:45;;;;;;;75.80;25.50;;;15.90;99.90;;;;;;5090341;28;20043;-85
2021/06/20 02:02:11;;;;;;;71.28;25.95;;;15.90;99.90;;;;;;5089051;28;20074;-85
2021/06/20 02:04:37;;;;;;;79.38;27.45;;;15.90;99.90;;;;;;5089844;28;20060;-85
2021/06/20 02:07:03;;;;;;;98.05;28.25;;;15.80;99.90;;;;;;5087262;28;20082;-85
2021/06/20 02:09:29;;;;;;;82.50;27.67;;;15.80;99.90;;;;;;5087816;28;20126;-84
2021/06/20 02:11:54;;;;;;;102.15;31.42;;;15.80;99.90;;;;;;5088514;28;20044;-84
2021/06/20 02:14:20;;;;;;;89.47;26.77;;;15.80;99.90;;;;;;5089077;28;20024;-85
2021/06/20 02:16:46;;;;;;;80.28;26.17;;;15.90;99.90;;;;;;5088876;28;20036;-84
2021/06/20 02:19:12;;;;;;;114.68;34.17;;;15.90;99.90;;;;;;5089029;28;20813;-85
2021/06/20 02:21:38;;;;;;;83.40;28.33;;;15.90;99.90;;;;;;5089847;28;20402;-84
2021/06/20 02:24:04;;;;;;;127.50;34.83;;;15.90;99.90;;;;;;5088642;28;20477;-84
2021/06/20 02:26:30;;;;;;;99.40;32.88;;;15.90;99.90;;;;;;5089668;28;20105;-84
2021/06/20 02:28:55;;;;;;;94.35;32.55;;;15.90;99.90;;;;;;5089579;28;20479;-84
2021/06/20 02:31:21;;;;;;;94.53;31.00;;;16.00;99.90;;;;;;5088757;28;20479;-84
2021/06/20 02:33:47;;;;;;;98.35;32.20;;;16.00;99.90;;;;;;5088496;28;20058;-85
2021/06/20 02:36:13;;;;;;;86.22;31.52;;;16.10;99.90;;;;;;5088536;28;20047;-85
2021/06/20 02:38:38;;;;;;;90.10;33.95;;;16.10;99.90;;;;;;5089290;28;20044;-84
2021/06/20 02:41:04;;;;;;;108.43;39.53;;;16.10;99.90;;;;;;5089025;28;20048;-85
2021/06/20 02:43:30;;;;;;;89.20;33.60;;;16.20;99.90;;;;;;5089299;28;20401;-84
2021/06/20 02:45:56;;;;;;;106.70;37.63;;;16.20;99.90;;;;;;5089330;28;20054;-85
2021/06/20 02:48:22;;;;;;;112.43;39.00;;;16.30;99.90;;;;;;5077597;28;20048;-85
2021/06/20 02:50:47;;;;;;;132.35;42.22;;;16.30;99.90;;;;;;5090148;28;20044;-84
2021/06/20 02:53:13;;;;;;;106.18;37.38;;;16.30;99.90;;;;;;5086948;28;20048;-85
2021/06/20 02:55:40;;;;;;;114.88;38.50;;;16.30;99.90;;;;;;5089454;28;20056;-84
2021/06/20 02:58:05;;;;;;;83.00;33.40;;;16.40;99.90;;;;;;5088674;28;20097;-85
2021/06/20 03:00:31;;;;;;;86.05;35.55;;;16.40;99.90;;;;;;5087588;28;20127;-85
2021/06/20 03:02:57;;;;;;;102.15;39.20;;;16.50;99.90;;;;;;5088657;28;20046;-85
2021/06/20 03:05:23;;;;;;;117.60;42.40;;;16.50;99.90;;;;;;5085307;28;20028;-84
2021/06/20 03:07:49;;;;;;;97.63;37.33;;;16.60;99.90;;;;;;5089133;28;20071;-85
2021/06/20 03:10:14;;;;;;;98.88;39.38;;;16.60;99.90;;;;;;5087258;28;20044;-85
2021/06/20 03:12:40;;;;;;;111.35;42.58;;;16.60;99.90;;;;;;5087541;28;20119;-85
2021/06/20 03:15:07;;;;;;;107.25;42.38;;;16.60;99.90;;;;;;5088426;28;20097;-85
2021/06/20 03:17:32;;;;;;;109.72;42.95;;;16.70;99.90;;;;;;5088915;28;20048;-85
2021/06/20 03:19:58;;;;;;;105.43;40.67;;;16.80;99.90;;;;;;5089059;28;20040;-85
2021/06/20 03:22:24;;;;;;;93.35;35.67;;;16.80;99.90;;;;;;5088205;28;20071;-85
2021/06/20 03:24:50;;;;;;;92.75;40.45;;;16.80;99.90;;;;;;5087946;28;20051;-85
2021/06/20 03:27:18;;;;;;;98.57;41.30;;;16.80;99.90;;;;;;5088132;28;20043;-85
2021/06/20 03:29:47;;;;;;;82.65;39.13;;;16.90;99.90;;;;;;5087842;28;20039;-85
2021/06/20 03:32:13;;;;;;;129.90;48.28;;;16.90;99.90;;;;;;5088286;28;20123;-84
2021/06/20 03:34:39;;;;;;;80.82;38.15;;;17.00;99.90;;;;;;5088731;28;20086;-84
2021/06/20 03:37:05;;;;;;;145.52;53.35;;;17.00;99.90;;;;;;5088825;28;20036;-84
2021/06/20 03:39:32;;;;;;;114.22;46.30;;;17.00;99.90;;;;;;5089604;28;20093;-84
2021/06/20 03:41:58;;;;;;;109.00;45.35;;;17.10;99.90;;;;;;5092814;28;20040;-83
2021/06/20 03:44:24;;;;;;;136.05;52.88;;;17.10;99.90;;;;;;5092300;28;20071;-84
2021/06/20 03:46:49;;;;;;;122.57;48.50;;;17.20;99.90;;;;;;5092735;28;20184;-83
2021/06/20 03:49:15;;;;;;;91.53;43.83;;;17.20;99.90;;;;;;5092239;28;20394;-83
2021/06/20 03:51:41;;;;;;;98.68;44.63;;;17.30;99.90;;;;;;5085308;28;20438;-84
2021/06/20 03:54:07;;;;;;;103.53;47.00;;;17.30;99.90;;;;;;5091531;28;20040;-84
2021/06/20 03:56:33;;;;;;;124.03;52.50;;;17.30;99.90;;;;;;5092231;28;20040;-83
2021/06/20 03:59:00;;;;;;;127.32;52.67;;;17.30;99.90;;;;;;5091803;28;20054;-82
2021/06/20 04:01:26;;;;;;;94.25;42.25;;;17.30;99.90;;;;;;5091505;28;20036;-83
2021/06/20 04:03:52;;;;;;;90.25;43.35;;;17.30;99.90;;;;;;5092021;28;20089;-85
2021/06/20 04:06:17;;;;;;;102.82;43.28;;;17.30;99.90;;;;;;5088685;28;20376;-85
2021/06/20 04:08:43;;;;;;;94.47;42.15;;;17.30;99.90;;;;;;5092676;28;20040;-85
2021/06/20 04:11:09;;;;;;;78.15;42.80;;;17.20;99.90;;;;;;5090896;28;20122;-85
2021/06/20 04:13:35;;;;;;;66.10;36.20;;;17.30;99.90;;;;;;5089693;28;20115;-84
2021/06/20 04:16:01;;;;;;;71.53;37.15;;;17.30;99.90;;;;;;5090881;28;20119;-85
2021/06/20 04:18:27;;;;;;;83.88;41.45;;;17.30;99.90;;;;;;5091697;28;20055;-85
2021/06/20 04:20:53;;;;;;;81.15;41.67;;;17.40;99.90;;;;;;5090627;28;20051;-83
2021/06/20 04:23:19;;;;;;;89.30;44.25;;;17.30;99.90;;;;;;5090442;28;20071;-84
2021/06/20 04:25:44;;;;;;;110.63;47.60;;;17.30;99.90;;;;;;5091070;28;20126;-83
2021/06/20 04:28:10;;;;;;;81.57;40.95;;;17.40;99.90;;;;;;5091747;28;20121;-84
2021/06/20 04:30:36;;;;;;;75.28;41.20;;;17.40;99.90;;;;;;5092114;28;20127;-84
2021/06/20 04:33:03;;;;;;;70.70;37.08;;;17.40;99.90;;;;;;5091909;28;20063;-84
2021/06/20 04:35:29;;;;;;;79.70;41.30;;;17.50;99.90;;;;;;5091309;28;20044;-83
2021/06/20 04:37:55;;;;;;;77.82;41.55;;;17.50;99.90;;;;;;5091781;28;20392;-84
2021/06/20 04:40:22;;;;;;;71.30;39.10;;;17.50;99.90;;;;;;5090973;28;20480;-84
2021/06/20 04:43:06;;;;;;;66.60;36.15;;;17.50;99.90;;;;;;5091988;28;20050;-84
2021/06/20 04:45:32;;;;;;;63.58;36.42;;;17.50;99.90;;;;;;5091327;28;20600;-84
2021/06/20 04:47:58;;;;;;;64.53;36.47;;;17.50;99.90;;;;;;5089964;28;20044;-84
2021/06/20 04:50:24;;;;;;;55.63;33.08;;;17.60;99.90;;;;;;5090676;28;20040;-84
2021/06/20 04:52:50;;;;;;;48.65;28.55;;;17.60;99.90;;;;;;5091963;28;20040;-84
2021/06/20 04:55:16;;;;;;;52.85;30.58;;;17.50;99.90;;;;;;5090727;28;20115;-84
2021/06/20 04:57:42;;;;;;;48.05;28.77;;;17.60;99.90;;;;;;5091490;28;20059;-84
2021/06/20 05:00:09;;;;;;;47.45;29.92;;;17.50;99.90;;;;;;5076673;28;20033;-86
2021/06/20 05:02:36;;;;;;;61.97;33.17;;;17.50;99.90;;;;;;5090769;28;20067;-86
2021/06/20 05:05:04;;;;;;;57.60;30.23;;;17.50;99.90;;;;;;5091129;28;20097;-85
2021/06/20 05:07:30;;;;;;;47.88;30.38;;;17.60;99.90;;;;;;5088947;28;20050;-86
2021/06/20 05:09:56;;;;;;;57.85;31.35;;;17.60;99.90;;;;;;5090500;28;20411;-85
2021/06/20 05:12:22;;;;;;;52.47;29.95;;;17.50;99.90;;;;;;5089549;28;20518;-85
2021/06/20 05:14:48;;;;;;;59.83;34.28;;;17.50;99.90;;;;;;5090871;28;20400;-85
2021/06/20 05:17:15;;;;;;;51.17;25.92;;;17.60;99.90;;;;;;5091080;28;20071;-86
2021/06/20 05:19:41;;;;;;;52.03;30.10;;;17.60;99.90;;;;;;5090635;28;20100;-85
2021/06/20 05:22:09;;;;;;;43.05;26.73;;;17.60;99.90;;;;;;5090403;28;20043;-84
2021/06/20 05:24:36;;;;;;;42.97;25.73;;;17.60;99.90;;;;;;5089463;28;20046;-86
2021/06/20 05:27:02;;;;;;;44.47;27.90;;;17.60;99.90;;;;;;5090264;28;20472;-86
2021/06/20 05:29:28;;;;;;;40.72;26.33;;;17.60;99.90;;;;;;5082622;28;20044;-84
2021/06/20 05:31:54;;;;;;;48.63;26.60;;;17.60;99.90;;;;;;5090077;28;20040;-86
2021/06/20 05:34:19;;;;;;;39.80;26.13;;;17.60;99.90;;;;;;5089766;28;20099;-86
2021/06/20 05:36:46;;;;;;;39.95;25.38;;;17.60;99.90;;;;;;5089769;28;20461;-86
2021/06/20 05:39:11;;;;;;;44.67;25.13;;;17.70;99.90;;;;;;5100527;28;20043;-86
2021/06/20 05:41:37;;;;;;;42.53;24.77;;;17.60;99.90;;;;;;5089349;28;20036;-86
2021/06/20 05:44:03;;;;;;;42.13;26.55;;;17.70;99.90;;;;;;5089638;28;20483;-86
2021/06/20 05:46:30;;;;;;;37.58;24.75;;;17.70;99.90;;;;;;5088086;28;20449;-86
2021/06/20 05:48:57;;;;;;;33.88;23.50;;;17.70;99.90;;;;;;5090098;28;20093;-86
2021/06/20 05:51:23;;;;;;;41.65;27.35;;;17.80;99.90;;;;;;5089363;28;20044;-86
2021/06/20 05:53:49;;;;;;;34.63;25.05;;;17.80;99.90;;;;;;5090571;28;20483;-87
2021/06/20 05:56:15;;;;;;;37.20;22.13;;;17.90;99.90;;;;;;5090250;28;20480;-86
2021/06/20 05:58:41;;;;;;;32.70;23.95;;;17.90;99.90;;;;;;5089074;28;20036;-87
2021/06/20 06:01:07;;;;;;;37.20;22.17;;;17.90;99.90;;;;;;5087942;28;20042;-86
2021/06/20 06:03:34;;;;;;;37.78;22.70;;;18.00;99.90;;;;;;5085268;28;20068;-87
2021/06/20 06:06:01;;;;;;;43.03;23.92;;;18.00;99.90;;;;;;5089835;28;20313;-87
2021/06/20 06:08:27;;;;;;;39.00;22.95;;;18.00;99.90;;;;;;5070878;28;20122;-87
2021/06/20 06:10:53;;;;;;;30.13;22.20;;;18.10;99.90;;;;;;5090075;28;20525;-87
2021/06/20 06:13:19;;;;;;;34.63;22.90;;;18.20;99.90;;;;;;5071402;28;20124;-87
2021/06/20 06:15:44;;;;;;;35.10;23.60;;;18.20;99.90;;;;;;5089968;28;20471;-87
2021/06/20 06:18:10;;;;;;;34.50;22.65;;;18.20;99.90;;;;;;5089879;28;20054;-87
2021/06/20 06:20:36;;;;;;;33.63;23.65;;;18.30;99.90;;;;;;5071169;28;20047;-87
2021/06/20 06:23:02;;;;;;;35.58;22.23;;;18.40;99.90;;;;;;5088021;28;20552;-86
2021/06/20 06:25:28;;;;;;;30.20;18.33;;;18.40;99.90;;;;;;5070702;28;20479;-87
2021/06/20 06:27:54;;;;;;;30.48;20.70;;;18.60;99.90;;;;;;5089370;28;20059;-87
2021/06/20 06:30:21;;;;;;;28.13;19.80;;;18.70;99.90;;;;;;5087952;28;20120;-86
2021/06/20 06:32:48;;;;;;;24.33;17.92;;;18.90;99.90;;;;;;5088542;28;20047;-87
2021/06/20 06:35:14;;;;;;;26.40;19.05;;;19.10;99.90;;;;;;5089626;28;20055;-86
2021/06/20 06:37:40;;;;;;;23.20;16.92;;;19.30;99.90;;;;;;5088722;28;20047;-87
2021/06/20 06:40:09;;;;;;;26.02;18.02;;;19.40;99.90;;;;;;5089515;28;20097;-88
2021/06/20 06:42:35;;;;;;;18.50;15.88;;;19.40;99.90;;;;;;5088742;28;20040;-86
2021/06/20 06:45:01;;;;;;;21.20;15.95;;;19.40;99.90;;;;;;5089286;28;20051;-87
2021/06/20 06:47:28;;;;;;;20.02;14.90;;;19.40;99.90;;;;;;5070131;28;20044;-88
2021/06/20 06:49:54;;;;;;;21.20;14.82;;;19.40;99.90;;;;;;5053715;28;20055;-86
2021/06/20 06:52:19;;;;;;;22.58;15.98;;;19.30;99.90;;;;;;5069944;28;20052;-87
2021/06/20 06:54:52;;;;;;;22.27;16.38;;;19.40;99.90;;;;;;5086516;28;20395;-86
2021/06/20 06:57:19;;;;;;;25.58;16.65;;;19.40;99.90;;;;;;5083205;28;20032;-86
2021/06/20 06:59:46;;;;;;;20.50;15.85;;;19.50;99.90;;;;;;5085721;28;20055;-86
2021/06/20 07:02:12;;;;;;;24.00;15.60;;;19.60;99.90;;;;;;5080942;28;20476;-85
2021/06/20 07:04:38;;;;;;;21.75;15.63;;;19.60;99.90;;;;;;5068422;28;20121;-86
2021/06/20 07:07:04;;;;;;;19.60;14.98;;;19.80;99.90;;;;;;5084640;28;21518;-85
2021/06/20 07:09:30;;;;;;;18.85;13.93;;;19.80;99.90;;;;;;5084371;28;20067;-87
2021/06/20 07:11:55;;;;;;;16.08;11.00;;;19.90;99.90;;;;;;5088139;28;20044;-85
2021/06/20 07:14:21;;;;;;;11.45;10.20;;;19.90;99.90;;;;;;5086219;28;20123;-87
2021/06/20 07:16:47;;;;;;;15.27;10.73;;;19.90;99.90;;;;;;5065123;28;20101;-84
2021/06/20 07:19:13;;;;;;;12.55;10.18;;;20.00;99.90;;;;;;5086636;28;20609;-86
2021/06/20 07:21:39;;;;;;;9.43;8.45;;;20.00;99.90;;;;;;5080360;28;20044;-84
2021/06/20 07:24:06;;;;;;;9.45;8.38;;;20.00;99.90;;;;;;5070611;28;20086;-84
2021/06/20 07:26:32;;;;;;;9.75;7.60;;;19.90;99.90;;;;;;5070322;28;20118;-84
2021/06/20 07:28:58;;;;;;;8.07;5.55;;;20.00;99.90;;;;;;5061114;28;20487;-84
2021/06/20 07:31:24;;;;;;;6.82;5.50;;;19.80;99.90;;;;;;5087182;28;20070;-86
2021/06/20 07:33:50;;;;;;;8.68;6.50;;;19.80;99.90;;;;;;5088191;28;20063;-84
2021/06/20 07:36:16;;;;;;;9.60;7.15;;;19.80;99.90;;;;;;5086538;28;20048;-84
2021/06/20 07:38:45;;;;;;;12.35;7.03;;;19.80;99.90;;;;;;5066694;28;20054;-85
2021/06/20 07:41:12;;;;;;;12.52;7.13;;;19.80;99.90;;;;;;5084472;28;20044;-85
2021/06/20 07:43:38;;;;;;;6.38;5.75;;;19.80;99.90;;;;;;5084628;28;20048;-85
2021/06/20 07:46:04;;;;;;;7.68;6.60;;;20.00;99.90;;;;;;5085586;28;20048;-85
2021/06/20 07:48:30;;;;;;;6.60;6.00;;;20.00;99.90;;;;;;5084556;28;20094;-86
2021/06/20 07:50:56;;;;;;;6.55;5.70;;;20.10;99.90;;;;;;5085112;28;20068;-85
2021/06/20 07:53:22;;;;;;;7.30;5.85;;;20.10;99.90;;;;;;5085432;28;20044;-85
2021/06/20 07:55:48;;;;;;;7.53;4.85;;;20.10;99.90;;;;;;5083194;28;20032;-85
2021/06/20 07:58:14;;;;;;;5.30;4.03;;;20.10;99.90;;;;;;5064441;28;20051;-85
2021/06/20 08:00:41;;;;;;;5.90;3.47;;;20.10;99.90;;;;;;5082389;28;20040;-84
2021/06/20 08:03:07;;;;;;;11.18;3.03;;;20.20;99.90;;;;;;5049032;28;20510;-86
2021/06/20 08:05:33;;;;;;;2.65;2.45;;;20.30;99.90;;;;;;5086028;28;20035;-85
2021/06/20 08:07:59;;;;;;;3.53;2.13;;;20.40;99.90;;;;;;5088689;28;20069;-85
2021/06/20 08:10:25;;;;;;;6.65;1.98;;;20.30;99.90;;;;;;5068965;28;20086;-86
2021/06/20 08:12:51;;;;;;;2.58;2.13;;;20.30;99.90;;;;;;5069113;28;20402;-86
2021/06/20 08:15:16;;;;;;;1.98;1.88;;;20.40;99.90;;;;;;5067165;28;20070;-85
2021/06/20 08:17:43;;;;;;;2.53;2.30;;;20.40;99.90;;;;;;5083273;28;20091;-83
2021/06/20 08:20:11;;;;;;;2.55;2.35;;;20.40;99.90;;;;;;5078642;28;20495;-88
2021/06/20 08:22:38;;;;;;;1.55;1.55;;;20.40;99.90;;;;;;5085199;28;20044;-89
2021/06/20 08:25:07;;;;;;;2.47;2.28;;;20.50;99.90;;;;;;5083676;28;20133;-88
2021/06/20 08:27:33;;;;;;;2.25;2.05;;;20.50;99.90;;;;;;5088213;28;20064;-90
2021/06/20 08:30:00;;;;;;;2.60;2.40;;;20.40;99.90;;;;;;5091161;28;20487;-90
2021/06/20 08:32:28;;;;;;;2.10;2.00;;;20.30;99.90;;;;;;5091557;28;20453;-90
2021/06/20 08:34:54;;;;;;;2.20;1.80;;;20.40;99.90;;;;;;5083817;28;20028;-90
2021/06/20 08:37:20;;;;;;;1.77;1.65;;;20.50;99.90;;;;;;5073041;28;20054;-87
2021/06/20 08:39:46;;;;;;;1.35;1.25;;;20.70;99.90;;;;;;5071346;28;20402;-89
2021/06/20 08:42:12;;;;;;;4.40;1.20;;;20.90;99.90;;;;;;5040057;28;20051;-87
2021/06/20 08:44:38;;;;;;;0.85;0.85;;;20.90;99.90;;;;;;5088831;28;20105;-90
2021/06/20 08:47:05;;;;;;;0.90;0.90;;;20.90;99.90;;;;;;5073499;28;20123;-90
2021/06/20 08:49:31;;;;;;;2.50;1.00;;;20.80;99.90;;;;;;5091353;28;20048;-92
2021/06/20 08:51:59;;;;;;;3.25;0.85;;;20.60;99.90;;;;;;5101509;28;20406;-90
2021/06/20 08:54:25;;;;;;;1.63;0.90;;;20.60;99.90;;;;;;5080437;28;20045;-90
2021/06/20 08:56:52;;;;;;;1.23;0.90;;;20.70;99.90;;;;;;5084438;28;20064;-89
2021/06/20 08:59:23;;;;;;;0.90;0.80;;;20.70;99.90;;;;;;5104377;27;20491;-89
2021/06/20 09:01:50;;;;;;;1.08;0.65;;;20.50;99.90;;;;;;5098176;28;20047;-90
2021/06/20 09:04:28;;;;;;;2.30;0.70;;;20.40;99.90;;;;;;5099481;28;20054;-89
2021/06/20 09:06:54;;;;;;;1.77;1.02;;;20.40;99.90;;;;;;5099178;28;20494;-88
2021/06/20 09:09:31;;;;;;;2.22;0.80;;;20.50;99.90;;;;;;5095812;28;20066;-89
2021/06/20 09:12:11;;;;;;;1.70;0.80;;;20.60;99.90;;;;;;5091345;28;20068;-89
2021/06/20 09:14:43;;;;;;;0.85;0.65;;;20.80;99.90;;;;;;5069421;28;20048;-91
2021/06/20 09:17:09;;;;;;;1.98;0.50;;;21.00;99.90;;;;;;5071527;28;20044;-91
2021/06/20 09:19:36;;;;;;;3.17;1.00;;;21.10;99.90;;;;;;5088390;28;20089;-92
2021/06/20 09:22:13;;;;;;;0.95;0.63;;;21.20;99.90;;;;;;5090330;28;20044;-91
2021/06/20 09:24:40;;;;;;;1.85;0.70;;;21.30;99.90;;;;;;5078202;28;20063;-89
2021/06/20 09:27:07;;;;;;;2.97;0.60;;;21.10;99.90;;;;;;4877228;28;20114;-87
2021/06/20 09:29:37;;;;;;;1.60;0.70;;;21.00;99.90;;;;;;4989722;28;20431;-92
2021/06/20 09:32:06;;;;;;;1.67;0.60;;;21.00;99.90;;;;;;5087986;28;20394;-89
2021/06/20 09:34:46;;;;;;;4.85;0.73;;;21.20;99.90;;;;;;5089936;28;20071;-90
2021/06/20 09:37:13;;;;;;;3.85;0.60;;;21.30;99.90;;;;;;5095197;28;20130;-87
2021/06/20 09:39:40;;;;;;;0.95;0.63;;;21.40;99.90;;;;;;5090073;28;20047;-89
2021/06/20 09:42:09;;;;;;;0.95;0.65;;;21.40;99.90;;;;;;5090592;28;20054;-89
2021/06/20 09:44:48;;;;;;;1.13;0.88;;;21.30;99.90;;;;;;5092055;28;20376;-92
2021/06/20 09:47:19;;;;;;;2.67;0.77;;;21.40;99.90;;;;;;5091553;28;20040;-88
2021/06/20 09:49:50;;;;;;;1.50;0.75;;;21.50;99.90;;;;;;5091236;28;20745;-89
2021/06/20 09:52:30;;;;;;;2.08;0.57;;;21.40;99.90;;;;;;5072208;28;20545;-88
2021/06/20 09:54:59;;;;;;;5.10;0.77;;;21.40;99.90;;;;;;5082298;28;20114;-88
2021/06/20 09:57:25;;;;;;;1.80;0.90;;;21.30;99.90;;;;;;5092221;28;20396;-92
2021/06/20 10:00:00;;;;;;;2.72;0.50;;;21.50;99.90;;;;;;5070189;28;20044;-87
2021/06/20 10:02:31;;;;;;;1.30;0.65;;;21.50;99.90;;;;;;5084699;28;20119;-88
2021/06/20 10:04:58;;;;;;;2.45;0.85;;;21.50;99.90;;;;;;5067558;28;20103;-90
2021/06/20 10:07:28;;;;;;;1.15;0.52;;;21.50;99.90;;;;;;5092000;28;20044;-88
2021/06/20 10:09:56;;;;;;;0.80;0.80;;;21.50;99.90;;;;;;5070335;28;20085;-88
2021/06/20 10:12:23;;;;;;;1.75;0.90;;;21.50;99.90;;;;;;5076733;28;20479;-87
2021/06/20 10:14:51;;;;;;;5.00;0.90;;;21.60;99.90;;;;;;5078712;28;20432;-88
2021/06/20 10:17:31;;;;;;;1.58;0.63;;;21.70;99.90;;;;;;5075175;28;20144;-88
2021/06/20 10:20:00;;;;;;;2.90;1.08;;;21.90;99.90;;;;;;5085344;28;20048;-88
2021/06/20 10:22:35;;;;;;;2.22;0.60;;;21.90;99.90;;;;;;5057212;28;20052;-89
2021/06/20 10:25:01;;;;;;;0.45;0.40;;;21.60;99.90;;;;;;5083922;28;20036;-88
2021/06/20 10:27:39;;;;;;;4.93;0.90;;;21.70;99.90;;;;;;5095060;28;20510;-89
2021/06/20 10:30:11;;;;;;;2.47;0.80;;;21.60;99.90;;;;;;5097518;28;20040;-88
2021/06/20 10:32:37;;;;;;;1.02;0.45;;;21.60;99.90;;;;;;5091154;28;20077;-87
2021/06/20 10:35:04;;;;;;;1.02;0.57;;;21.70;99.90;;;;;;5072631;28;20064;-89
2021/06/20 10:37:38;;;;;;;1.08;0.60;;;21.80;99.90;;;;;;5095172;28;20565;-89
2021/06/20 10:40:18;;;;;;;0.85;0.50;;;21.80;99.90;;;;;;5054564;28;20044;-88
2021/06/20 10:42:44;;;;;;;8.48;1.00;;;21.80;99.90;;;;;;5076184;28;20491;-88
2021/06/20 10:45:11;;;;;;;6.88;0.63;;;21.90;99.90;;;;;;5080836;28;20054;-89
2021/06/20 10:47:39;;;;;;;8.15;1.48;;;22.00;99.90;;;;;;5072255;28;20044;-88
2021/06/20 10:50:13;;;;;;;4.35;1.00;;;22.10;99.90;;;;;;5080745;28;20079;-92
2021/06/20 10:52:41;;;;;;;1.88;0.90;;;22.10;99.90;;;;;;5093982;28;20036;-93
2021/06/20 10:55:12;;;;;;;3.03;0.80;;;22.10;99.90;;;;;;5063342;28;20035;-88
2021/06/20 10:57:51;;;;;;;2.60;0.88;;;21.50;99.90;;;;;;5089631;28;20044;-88
2021/06/20 11:00:37;;;;;;;2.80;0.75;;;21.70;99.90;;;;;;5092588;28;20089;-90
2021/06/20 11:03:27;;;;;;;6.93;1.90;;;21.90;99.90;;;;;;5086668;28;20068;-88
2021/06/20 11:05:57;;;;;;;;;;;21.80;99.90;;;;;;5077097;28;20114;-90
2021/06/20 11:08:37;;;;;;;1.65;0.85;;;22.00;99.90;;;;;;5089479;28;19951;-88
2021/06/20 11:11:02;;;;;;;;;;;21.90;99.90;;;;;;5087990;28;20145;-89
2021/06/20 11:13:28;;;;;;;3.35;0.73;;;21.80;99.90;;;;;;5080495;28;20678;-88
2021/06/20 11:16:08;;;;;;;3.53;0.40;;;21.80;99.90;;;;;;5087795;28;20442;-88
2021/06/20 11:18:34;;;;;;;;;;;21.60;99.90;;;;;;5090370;28;20040;-88
2021/06/20 11:21:00;;;;;;;3.75;0.85;;;21.50;99.90;;;;;;5091002;28;20018;-88
2021/06/20 11:23:32;;;;;;;2.05;0.60;;;21.50;99.90;;;;;;5084337;28;20040;-89
2021/06/20 11:26:00;;;;;;;4.07;0.80;;;21.50;99.90;;;;;;5083398;28;20044;-87
2021/06/20 11:28:27;;;;;;;3.72;0.73;;;21.50;99.90;;;;;;5081952;28;20123;-89
2021/06/20 11:31:13;;;;;;;2.05;0.47;;;21.50;99.90;;;;;;5052138;28;20500;-89
2021/06/20 11:33:39;;;;;;;1.83;0.52;;;21.50;99.90;;;;;;5096631;28;20500;-88
2021/06/20 11:36:05;;;;;;;2.17;0.47;;;21.60;99.90;;;;;;5085159;28;20047;-90
2021/06/20 11:38:39;;;;;;;7.60;1.70;;;21.60;99.90;;;;;;5072497;28;20494;-88
2021/06/20 11:41:10;;;;;;;4.00;1.33;;;21.20;99.90;;;;;;5088607;28;20589;-88
2021/06/20 11:43:39;;;;;;;11.60;1.40;;;20.80;99.90;;;;;;5085702;28;20040;-87
2021/06/20 11:46:18;;;;;;;7.93;1.40;;;20.70;99.90;;;;;;5082002;28;20106;-90
2021/06/20 11:49:17;;;;;;;8.15;1.60;;;20.60;99.90;;;;;;5069405;28;20045;-90
2021/06/20 11:51:48;;;;;;;11.00;2.13;;;20.70;99.90;;;;;;5058611;28;20124;-87
2021/06/20 11:54:17;;;;;;;4.13;1.20;;;20.70;99.90;;;;;;5089876;28;20048;-88
2021/06/20 11:56:52;;;;;;;2.50;1.10;;;20.50;99.90;;;;;;5071730;28;20044;-88
2021/06/20 11:59:33;;;;;;;3.95;1.05;;;20.40;99.90;;;;;;5072135;28;20051;-88
2021/06/20 12:02:00;;;;;;;4.72;1.20;;;20.20;99.90;;;;;;5091596;28;20032;-89
2021/06/20 12:04:30;;;;;;;2.35;1.00;;;20.20;99.90;;;;;;5072839;28;20043;-88
2021/06/20 12:06:56;;;;;;;4.57;1.00;;;20.20;99.90;;;;;;5095900;28;20063;-88
2021/06/20 12:09:23;;;;;;;5.60;1.23;;;20.20;99.90;;;;;;5094031;28;20046;-88
2021/06/20 12:12:00;;;;;;;5.70;1.25;;;20.20;99.90;;;;;;5093765;28;20055;-92
2021/06/20 12:14:29;;;;;;;3.65;1.00;;;20.20;99.90;;;;;;5079757;28;20498;-88
2021/06/20 12:16:56;;;;;;;4.20;1.30;;;20.10;99.90;;;;;;5092604;28;20480;-88
2021/06/20 12:19:23;;;;;;;4.28;1.35;;;19.80;99.90;;;;;;5063125;28;20135;-89
2021/06/20 12:22:01;;;;;;;10.68;1.77;;;19.50;99.90;;;;;;5075690;28;20044;-91
2021/06/20 12:24:37;;;;;;;8.73;1.60;;;19.40;99.90;;;;;;5085532;28;20040;-88
2021/06/20 12:27:03;;;;;;;7.47;1.75;;;19.30;99.90;;;;;;5093865;28;20048;-88
2021/06/20 12:29:34;;;;;;;7.57;2.10;;;19.10;99.90;;;;;;5092764;28;20059;-88
2021/06/20 12:32:04;;;;;;;8.73;2.20;;;19.20;99.90;;;;;;5093668;28;20050;-89
2021/06/20 12:34:39;;;;;;;;;;;19.20;99.90;;;;;;5093857;28;20101;-89
2021/06/20 12:37:05;;;;;;;15.13;2.35;;;19.40;99.90;;;;;;5093199;28;19920;-88
2021/06/20 12:39:47;;;;;;;8.68;1.80;;;19.30;99.90;;;;;;5075832;28;20476;-89